sensor_id;sensor_type;location;lat;lon;timestamp;pressure;altitude;pressure_sealevel;temperature;humidity
6433;BME280;3249;42.690;23.260;2022-11-15T00:01:16;94966.75;;;2.95;100.00
6433;BME280;3249;42.690;23.260;2022-11-15T00:03:42;94938.28;;;2.83;100.00
6433;BME280;3249;42.690;23.260;2022-11-15T00:06:08;94898.56;;;2.41;100.00
6433;BME280;3249;42.690;23.260;2022-11-15T00:08:34;94929.31;;;2.63;100.00
6433;BME280;3249;42.690;23.260;2022-11-15T00:11:01;94952.69;;;2.75;100.00
6433;BME280;3249;42.690;23.260;2022-11-15T00:13:27;94957.94;;;2.73;100.00
6433;BME280;3249;42.690;23.260;2022-11-15T00:15:57;94892.56;;;2.16;100.00
6433;BME280;3249;42.690;23.260;2022-11-15T00:18:23;94949.16;;;2.34;100.00
6433;BME280;3249;42.690;23.260;2022-11-15T00:20:48;94925.34;;;2.35;100.00
6433;BME280;3249;42.690;23.260;2022-11-15T00:23:13;94940.38;;;2.54;100.00
6433;BME280;3249;42.690;23.260;2022-11-15T00:25:39;94926.44;;;2.58;100.00
6433;BME280;3249;42.690;23.260;2022-11-15T00:28:04;94910.69;;;2.55;100.00
6433;BME280;3249;42.690;23.260;2022-11-15T00:30:30;94936.81;;;2.73;100.00
6433;BME280;3249;42.690;23.260;2022-11-15T00:32:55;94938.44;;;2.82;100.00
6433;BME280;3249;42.690;23.260;2022-11-15T00:35:21;94944.00;;;2.85;100.00
6433;BME280;3249;42.690;23.260;2022-11-15T00:37:47;94942.25;;;2.78;100.00
6433;BME280;3249;42.690;23.260;2022-11-15T00:40:13;94938.38;;;2.66;100.00
6433;BME280;3249;42.690;23.260;2022-11-15T00:42:39;94902.66;;;2.67;100.00
6433;BME280;3249;42.690;23.260;2022-11-15T00:45:05;94928.28;;;2.82;100.00
6433;BME280;3249;42.690;23.260;2022-11-15T00:47:30;94935.59;;;2.85;100.00
6433;BME280;3249;42.690;23.260;2022-11-15T00:49:56;94920.91;;;2.71;100.00
6433;BME280;3249;42.690;23.260;2022-11-15T00:52:21;94931.81;;;2.55;100.00
6433;BME280;3249;42.690;23.260;2022-11-15T00:54:47;94903.97;;;2.46;100.00
6433;BME280;3249;42.690;23.260;2022-11-15T00:57:12;94923.31;;;2.72;100.00
6433;BME280;3249;42.690;23.260;2022-11-15T00:59:37;94930.66;;;2.83;100.00
6433;BME280;3249;42.690;23.260;2022-11-15T01:02:03;94931.16;;;2.87;100.00
6433;BME280;3249;42.690;23.260;2022-11-15T01:04:28;94915.75;;;2.88;100.00
6433;BME280;3249;42.690;23.260;2022-11-15T01:06:54;94923.50;;;2.79;100.00
6433;BME280;3249;42.690;23.260;2022-11-15T01:09:19;94922.84;;;2.77;100.00
6433;BME280;3249;42.690;23.260;2022-11-15T01:11:45;94915.41;;;2.83;100.00
6433;BME280;3249;42.690;23.260;2022-11-15T01:14:10;94920.03;;;2.96;100.00
6433;BME280;3249;42.690;23.260;2022-11-15T01:16:36;94913.38;;;2.95;100.00
6433;BME280;3249;42.690;23.260;2022-11-15T01:19:01;94935.47;;;2.94;100.00
6433;BME280;3249;42.690;23.260;2022-11-15T01:21:27;94923.38;;;2.88;100.00
6433;BME280;3249;42.690;23.260;2022-11-15T01:23:53;94920.69;;;2.98;100.00
6433;BME280;3249;42.690;23.260;2022-11-15T01:26:19;94918.31;;;2.96;100.00
6433;BME280;3249;42.690;23.260;2022-11-15T01:28:45;94914.00;;;2.89;100.00
6433;BME280;3249;42.690;23.260;2022-11-15T01:31:19;94924.84;;;3.07;100.00
6433;BME280;3249;42.690;23.260;2022-11-15T01:33:45;94921.47;;;2.90;100.00
6433;BME280;3249;42.690;23.260;2022-11-15T01:36:14;94920.88;;;2.63;100.00
6433;BME280;3249;42.690;23.260;2022-11-15T01:38:39;94910.91;;;2.36;100.00
6433;BME280;3249;42.690;23.260;2022-11-15T01:41:05;94906.34;;;2.39;100.00
6433;BME280;3249;42.690;23.260;2022-11-15T01:43:33;94900.28;;;2.40;100.00
6433;BME280;3249;42.690;23.260;2022-11-15T01:46:04;94885.91;;;2.49;100.00
6433;BME280;3249;42.690;23.260;2022-11-15T01:48:33;94896.81;;;2.83;100.00
6433;BME280;3249;42.690;23.260;2022-11-15T01:51:01;94899.34;;;2.83;100.00
6433;BME280;3249;42.690;23.260;2022-11-15T01:53:28;94900.34;;;2.90;100.00
6433;BME280;3249;42.690;23.260;2022-11-15T01:55:55;94894.94;;;2.85;100.00
6433;BME280;3249;42.690;23.260;2022-11-15T01:58:21;94884.34;;;2.64;100.00
6433;BME280;3249;42.690;23.260;2022-11-15T02:00:48;94904.13;;;2.44;100.00
6433;BME280;3249;42.690;23.260;2022-11-15T02:03:15;94907.97;;;2.48;100.00
6433;BME280;3249;42.690;23.260;2022-11-15T02:05:41;94901.03;;;2.58;100.00
6433;BME280;3249;42.690;23.260;2022-11-15T02:08:08;94900.88;;;2.68;100.00
6433;BME280;3249;42.690;23.260;2022-11-15T02:10:48;94880.84;;;2.57;100.00
6433;BME280;3249;42.690;23.260;2022-11-15T02:13:15;94904.38;;;2.67;100.00
6433;BME280;3249;42.690;23.260;2022-11-15T02:16:09;94909.97;;;2.70;100.00
6433;BME280;3249;42.690;23.260;2022-11-15T02:18:43;94903.91;;;2.63;100.00
6433;BME280;3249;42.690;23.260;2022-11-15T02:35:02;94893.44;;;2.33;100.00
6433;BME280;3249;42.690;23.260;2022-11-15T02:37:45;94896.94;;;2.40;100.00
6433;BME280;3249;42.690;23.260;2022-11-15T02:43:01;94889.00;;;2.35;100.00
6433;BME280;3249;42.690;23.260;2022-11-15T02:45:53;94885.38;;;2.12;100.00
6433;BME280;3249;42.690;23.260;2022-11-15T02:48:22;94882.91;;;2.28;100.00
6433;BME280;3249;42.690;23.260;2022-11-15T02:50:50;94883.44;;;2.31;100.00
6433;BME280;3249;42.690;23.260;2022-11-15T02:53:16;94890.13;;;2.40;100.00
6433;BME280;3249;42.690;23.260;2022-11-15T02:55:45;94894.13;;;2.43;100.00
6433;BME280;3249;42.690;23.260;2022-11-15T03:01:02;94890.03;;;2.50;100.00
6433;BME280;3249;42.690;23.260;2022-11-15T03:03:59;94908.81;;;2.57;100.00
6433;BME280;3249;42.690;23.260;2022-11-15T03:11:38;94901.69;;;2.68;100.00
6433;BME280;3249;42.690;23.260;2022-11-15T03:16:37;94893.59;;;2.65;100.00
6433;BME280;3249;42.690;23.260;2022-11-15T03:19:10;94894.56;;;2.80;100.00
6433;BME280;3249;42.690;23.260;2022-11-15T03:21:39;94893.34;;;2.92;100.00
6433;BME280;3249;42.690;23.260;2022-11-15T03:24:06;94886.88;;;3.05;100.00
6433;BME280;3249;42.690;23.260;2022-11-15T03:26:34;94892.09;;;3.04;100.00
6433;BME280;3249;42.690;23.260;2022-11-15T03:29:09;94892.88;;;2.88;100.00
6433;BME280;3249;42.690;23.260;2022-11-15T03:31:39;94878.59;;;2.95;100.00
6433;BME280;3249;42.690;23.260;2022-11-15T03:34:38;94882.28;;;3.17;100.00
6433;BME280;3249;42.690;23.260;2022-11-15T03:37:05;94885.00;;;3.15;100.00
6433;BME280;3249;42.690;23.260;2022-11-15T03:39:32;94864.16;;;3.20;100.00
6433;BME280;3249;42.690;23.260;2022-11-15T03:42:20;94882.34;;;3.49;100.00
6433;BME280;3249;42.690;23.260;2022-11-15T03:47:20;94872.78;;;3.59;100.00
6433;BME280;3249;42.690;23.260;2022-11-15T03:49:51;94868.03;;;3.72;100.00
6433;BME280;3249;42.690;23.260;2022-11-15T03:52:19;94863.56;;;3.66;100.00
6433;BME280;3249;42.690;23.260;2022-11-15T03:54:56;94872.78;;;3.75;100.00
6433;BME280;3249;42.690;23.260;2022-11-15T03:57:22;94865.47;;;3.88;100.00
6433;BME280;3249;42.690;23.260;2022-11-15T03:59:47;94868.63;;;3.98;100.00
6433;BME280;3249;42.690;23.260;2022-11-15T04:02:13;94869.56;;;4.05;100.00
6433;BME280;3249;42.690;23.260;2022-11-15T04:04:39;94831.41;;;3.81;100.00
6433;BME280;3249;42.690;23.260;2022-11-15T04:07:04;94869.88;;;4.10;100.00
6433;BME280;3249;42.690;23.260;2022-11-15T04:09:30;94859.06;;;4.08;100.00
6433;BME280;3249;42.690;23.260;2022-11-15T04:11:55;94852.19;;;4.16;100.00
6433;BME280;3249;42.690;23.260;2022-11-15T04:14:21;94862.19;;;4.26;100.00
6433;BME280;3249;42.690;23.260;2022-11-15T04:16:46;94853.78;;;4.17;100.00
6433;BME280;3249;42.690;23.260;2022-11-15T04:19:11;94855.06;;;4.21;100.00
6433;BME280;3249;42.690;23.260;2022-11-15T04:21:55;94840.88;;;4.19;100.00
6433;BME280;3249;42.690;23.260;2022-11-15T04:24:39;94856.47;;;4.32;100.00
6433;BME280;3249;42.690;23.260;2022-11-15T04:27:05;94839.75;;;4.29;100.00
6433;BME280;3249;42.690;23.260;2022-11-15T04:29:30;94833.88;;;4.21;100.00
6433;BME280;3249;42.690;23.260;2022-11-15T04:32:06;94848.94;;;4.38;100.00
6433;BME280;3249;42.690;23.260;2022-11-15T04:34:31;94852.94;;;4.33;100.00
6433;BME280;3249;42.690;23.260;2022-11-15T04:36:58;94837.97;;;4.30;100.00
6433;BME280;3249;42.690;23.260;2022-11-15T04:39:39;94856.97;;;4.58;100.00
6433;BME280;3249;42.690;23.260;2022-11-15T04:42:05;94837.69;;;4.17;100.00
6433;BME280;3249;42.690;23.260;2022-11-15T04:44:30;94849.22;;;3.89;100.00
6433;BME280;3249;42.690;23.260;2022-11-15T04:46:56;94856.06;;;3.88;100.00
6433;BME280;3249;42.690;23.260;2022-11-15T04:49:21;94845.44;;;3.61;100.00
6433;BME280;3249;42.690;23.260;2022-11-15T04:51:47;94853.69;;;3.71;100.00
6433;BME280;3249;42.690;23.260;2022-11-15T04:54:13;94853.38;;;3.74;100.00
6433;BME280;3249;42.690;23.260;2022-11-15T04:56:38;94822.53;;;3.45;100.00
6433;BME280;3249;42.690;23.260;2022-11-15T04:59:04;94845.28;;;3.54;100.00
6433;BME280;3249;42.690;23.260;2022-11-15T05:01:29;94852.25;;;3.76;100.00
6433;BME280;3249;42.690;23.260;2022-11-15T05:03:54;94854.00;;;3.84;100.00
6433;BME280;3249;42.690;23.260;2022-11-15T05:06:39;94833.19;;;3.56;100.00
6433;BME280;3249;42.690;23.260;2022-11-15T05:09:04;94864.03;;;3.85;100.00
6433;BME280;3249;42.690;23.260;2022-11-15T05:11:30;94852.38;;;3.91;100.00
6433;BME280;3249;42.690;23.260;2022-11-15T05:13:55;94859.69;;;4.10;100.00
6433;BME280;3249;42.690;23.260;2022-11-15T05:16:21;94842.19;;;3.99;100.00
6433;BME280;3249;42.690;23.260;2022-11-15T05:18:46;94854.16;;;3.98;100.00
6433;BME280;3249;42.690;23.260;2022-11-15T05:21:14;94846.97;;;3.94;100.00
6433;BME280;3249;42.690;23.260;2022-11-15T05:23:40;94848.53;;;4.11;100.00
6433;BME280;3249;42.690;23.260;2022-11-15T05:26:06;94840.47;;;3.75;100.00
6433;BME280;3249;42.690;23.260;2022-11-15T05:28:33;94847.94;;;4.01;100.00
6433;BME280;3249;42.690;23.260;2022-11-15T05:31:25;94841.50;;;4.21;100.00
6433;BME280;3249;42.690;23.260;2022-11-15T05:33:52;94819.56;;;4.20;100.00
6433;BME280;3249;42.690;23.260;2022-11-15T05:36:44;94849.09;;;4.37;100.00
6433;BME280;3249;42.690;23.260;2022-11-15T05:39:11;94851.69;;;4.21;100.00
6433;BME280;3249;42.690;23.260;2022-11-15T05:41:44;94842.13;;;4.23;100.00
6433;BME280;3249;42.690;23.260;2022-11-15T05:44:11;94829.56;;;4.29;100.00
6433;BME280;3249;42.690;23.260;2022-11-15T05:46:39;94833.97;;;4.35;100.00
6433;BME280;3249;42.690;23.260;2022-11-15T05:49:07;94847.25;;;4.15;100.00
6433;BME280;3249;42.690;23.260;2022-11-15T05:51:35;94850.31;;;4.02;100.00
6433;BME280;3249;42.690;23.260;2022-11-15T05:54:00;94852.25;;;3.84;100.00
6433;BME280;3249;42.690;23.260;2022-11-15T05:56:26;94851.63;;;3.74;100.00
6433;BME280;3249;42.690;23.260;2022-11-15T05:58:54;94830.13;;;3.85;100.00
6433;BME280;3249;42.690;23.260;2022-11-15T06:01:20;94847.28;;;3.91;100.00
6433;BME280;3249;42.690;23.260;2022-11-15T06:03:46;94847.97;;;3.77;100.00
6433;BME280;3249;42.690;23.260;2022-11-15T06:06:11;94842.88;;;3.69;100.00
6433;BME280;3249;42.690;23.260;2022-11-15T06:08:37;94850.00;;;3.73;100.00
6433;BME280;3249;42.690;23.260;2022-11-15T06:11:04;94857.50;;;3.75;100.00
6433;BME280;3249;42.690;23.260;2022-11-15T06:13:30;94852.72;;;4.04;100.00
6433;BME280;3249;42.690;23.260;2022-11-15T06:15:56;94836.47;;;3.97;100.00
6433;BME280;3249;42.690;23.260;2022-11-15T06:18:21;94854.91;;;4.07;100.00
6433;BME280;3249;42.690;23.260;2022-11-15T06:20:47;94851.69;;;4.21;100.00
6433;BME280;3249;42.690;23.260;2022-11-15T06:23:12;94858.72;;;4.11;100.00
6433;BME280;3249;42.690;23.260;2022-11-15T06:25:38;94807.19;;;4.01;100.00
6433;BME280;3249;42.690;23.260;2022-11-15T06:28:04;94862.59;;;4.53;100.00
6433;BME280;3249;42.690;23.260;2022-11-15T06:30:29;94826.38;;;4.19;100.00
6433;BME280;3249;42.690;23.260;2022-11-15T06:33:05;94852.03;;;4.10;100.00
6433;BME280;3249;42.690;23.260;2022-11-15T06:35:33;94839.09;;;4.27;100.00
6433;BME280;3249;42.690;23.260;2022-11-15T06:38:09;94849.66;;;4.08;100.00
6433;BME280;3249;42.690;23.260;2022-11-15T06:40:36;94847.38;;;4.29;100.00
6433;BME280;3249;42.690;23.260;2022-11-15T06:43:03;94851.41;;;4.16;100.00
6433;BME280;3249;42.690;23.260;2022-11-15T06:45:28;94849.19;;;4.05;100.00
6433;BME280;3249;42.690;23.260;2022-11-15T06:47:54;94852.28;;;4.31;100.00
6433;BME280;3249;42.690;23.260;2022-11-15T06:50:19;94848.25;;;3.98;100.00
6433;BME280;3249;42.690;23.260;2022-11-15T06:52:45;94847.59;;;4.12;100.00
6433;BME280;3249;42.690;23.260;2022-11-15T06:55:10;94849.75;;;4.31;100.00
6433;BME280;3249;42.690;23.260;2022-11-15T06:57:36;94814.19;;;3.91;100.00
6433;BME280;3249;42.690;23.260;2022-11-15T07:00:03;94846.13;;;4.25;100.00
6433;BME280;3249;42.690;23.260;2022-11-15T07:02:29;94839.84;;;4.44;100.00
6433;BME280;3249;42.690;23.260;2022-11-15T07:04:54;94821.41;;;4.34;100.00
6433;BME280;3249;42.690;23.260;2022-11-15T07:07:20;94844.00;;;4.37;100.00
6433;BME280;3249;42.690;23.260;2022-11-15T07:09:45;94846.97;;;4.48;100.00
6433;BME280;3249;42.690;23.260;2022-11-15T07:12:11;94836.63;;;4.50;100.00
6433;BME280;3249;42.690;23.260;2022-11-15T07:14:36;94832.69;;;4.39;100.00
6433;BME280;3249;42.690;23.260;2022-11-15T07:17:03;94845.91;;;4.35;100.00
6433;BME280;3249;42.690;23.260;2022-11-15T07:19:29;94838.34;;;4.11;100.00
6433;BME280;3249;42.690;23.260;2022-11-15T07:21:55;94834.19;;;4.18;100.00
6433;BME280;3249;42.690;23.260;2022-11-15T07:24:20;94852.75;;;4.42;100.00
6433;BME280;3249;42.690;23.260;2022-11-15T07:26:45;94839.09;;;4.66;100.00
6433;BME280;3249;42.690;23.260;2022-11-15T07:29:11;94854.16;;;4.53;100.00
6433;BME280;3249;42.690;23.260;2022-11-15T07:31:36;94842.88;;;4.39;100.00
6433;BME280;3249;42.690;23.260;2022-11-15T07:34:02;94843.66;;;4.48;100.00
6433;BME280;3249;42.690;23.260;2022-11-15T07:36:27;94839.72;;;4.37;100.00
6433;BME280;3249;42.690;23.260;2022-11-15T07:38:53;94840.09;;;4.57;100.00
6433;BME280;3249;42.690;23.260;2022-11-15T07:41:18;94839.09;;;4.66;100.00
6433;BME280;3249;42.690;23.260;2022-11-15T07:43:43;94835.31;;;4.92;100.00
6433;BME280;3249;42.690;23.260;2022-11-15T07:46:09;94858.16;;;5.17;100.00
6433;BME280;3249;42.690;23.260;2022-11-15T07:48:38;94855.28;;;5.12;100.00
6433;BME280;3249;42.690;23.260;2022-11-15T07:51:05;94823.19;;;5.17;100.00
6433;BME280;3249;42.690;23.260;2022-11-15T07:53:31;94840.56;;;5.44;100.00
6433;BME280;3249;42.690;23.260;2022-11-15T07:55:56;94839.03;;;5.58;100.00
6433;BME280;3249;42.690;23.260;2022-11-15T07:58:22;94852.81;;;5.71;100.00
6433;BME280;3249;42.690;23.260;2022-11-15T08:00:47;94844.78;;;5.74;100.00
6433;BME280;3249;42.690;23.260;2022-11-15T08:03:14;94846.09;;;5.70;100.00
6433;BME280;3249;42.690;23.260;2022-11-15T08:05:42;94858.53;;;5.51;100.00
6433;BME280;3249;42.690;23.260;2022-11-15T08:08:10;94856.41;;;5.54;100.00
6433;BME280;3249;42.690;23.260;2022-11-15T08:10:36;94848.44;;;5.12;100.00
6433;BME280;3249;42.690;23.260;2022-11-15T08:13:08;94836.59;;;4.58;100.00
6433;BME280;3249;42.690;23.260;2022-11-15T08:15:35;94833.31;;;4.80;100.00
6433;BME280;3249;42.690;23.260;2022-11-15T08:18:03;94808.84;;;4.71;100.00
6433;BME280;3249;42.690;23.260;2022-11-15T08:20:29;94809.78;;;4.92;100.00
6433;BME280;3249;42.690;23.260;2022-11-15T08:22:56;94826.66;;;5.02;100.00
6433;BME280;3249;42.690;23.260;2022-11-15T08:25:22;94829.06;;;5.03;100.00
6433;BME280;3249;42.690;23.260;2022-11-15T08:27:51;94822.06;;;5.42;100.00
6433;BME280;3249;42.690;23.260;2022-11-15T08:30:16;94840.09;;;5.18;100.00
6433;BME280;3249;42.690;23.260;2022-11-15T08:32:42;94820.66;;;5.17;100.00
6433;BME280;3249;42.690;23.260;2022-11-15T08:35:07;94828.66;;;5.37;100.00
6433;BME280;3249;42.690;23.260;2022-11-15T08:37:33;94824.13;;;5.61;100.00
6433;BME280;3249;42.690;23.260;2022-11-15T08:39:59;94832.84;;;5.52;100.00
6433;BME280;3249;42.690;23.260;2022-11-15T08:42:24;94831.81;;;5.39;100.00
6433;BME280;3249;42.690;23.260;2022-11-15T08:44:49;94813.63;;;5.19;100.00
6433;BME280;3249;42.690;23.260;2022-11-15T08:47:15;94822.56;;;5.60;100.00
6433;BME280;3249;42.690;23.260;2022-11-15T08:49:40;94829.06;;;5.85;100.00
6433;BME280;3249;42.690;23.260;2022-11-15T08:52:06;94824.19;;;5.98;100.00
6433;BME280;3249;42.690;23.260;2022-11-15T08:54:31;94826.16;;;5.88;100.00
6433;BME280;3249;42.690;23.260;2022-11-15T08:56:57;94797.63;;;5.62;100.00
6433;BME280;3249;42.690;23.260;2022-11-15T08:59:22;94818.16;;;5.91;100.00
6433;BME280;3249;42.690;23.260;2022-11-15T09:01:47;94787.31;;;5.56;100.00
6433;BME280;3249;42.690;23.260;2022-11-15T09:04:13;94814.28;;;5.95;100.00
6433;BME280;3249;42.690;23.260;2022-11-15T09:06:38;94783.63;;;5.95;100.00
6433;BME280;3249;42.690;23.260;2022-11-15T09:09:04;94793.78;;;6.18;100.00
6433;BME280;3249;42.690;23.260;2022-11-15T09:11:29;94800.19;;;6.28;100.00
6433;BME280;3249;42.690;23.260;2022-11-15T09:13:55;94799.94;;;6.38;100.00
6433;BME280;3249;42.690;23.260;2022-11-15T09:16:20;94791.91;;;6.41;100.00
6433;BME280;3249;42.690;23.260;2022-11-15T09:18:46;94796.31;;;6.03;100.00
6433;BME280;3249;42.690;23.260;2022-11-15T09:21:12;94785.69;;;5.77;100.00
6433;BME280;3249;42.690;23.260;2022-11-15T09:23:37;94800.78;;;5.87;100.00
6433;BME280;3249;42.690;23.260;2022-11-15T09:26:04;94749.47;;;5.45;100.00
6433;BME280;3249;42.690;23.260;2022-11-15T09:28:30;94763.47;;;5.86;100.00
6433;BME280;3249;42.690;23.260;2022-11-15T09:30:57;94783.38;;;6.34;100.00
6433;BME280;3249;42.690;23.260;2022-11-15T09:33:24;94755.16;;;6.27;100.00
6433;BME280;3249;42.690;23.260;2022-11-15T09:35:49;94780.34;;;6.59;100.00
6433;BME280;3249;42.690;23.260;2022-11-15T09:38:14;94745.22;;;6.18;100.00
6433;BME280;3249;42.690;23.260;2022-11-15T09:40:40;94779.56;;;6.44;100.00
6433;BME280;3249;42.690;23.260;2022-11-15T09:50:57;94725.09;;;6.29;100.00
6433;BME280;3249;42.690;23.260;2022-11-15T09:53:49;94764.53;;;6.70;100.00
6433;BME280;3249;42.690;23.260;2022-11-15T09:56:20;94761.00;;;6.92;100.00
6433;BME280;3249;42.690;23.260;2022-11-15T09:58:57;94758.47;;;7.13;100.00
6433;BME280;3249;42.690;23.260;2022-11-15T10:04:00;94750.53;;;7.29;100.00
6433;BME280;3249;42.690;23.260;2022-11-15T10:06:26;94717.94;;;7.44;100.00
6433;BME280;3249;42.690;23.260;2022-11-15T10:09:05;94741.00;;;7.44;100.00
6433;BME280;3249;42.690;23.260;2022-11-15T10:11:35;94746.38;;;7.49;100.00
6433;BME280;3249;42.690;23.260;2022-11-15T10:14:20;94746.75;;;7.80;100.00
6433;BME280;3249;42.690;23.260;2022-11-15T10:19:54;94736.75;;;8.19;100.00
6433;BME280;3249;42.690;23.260;2022-11-15T10:25:16;94732.66;;;8.25;100.00
6433;BME280;3249;42.690;23.260;2022-11-15T10:27:40;94708.19;;;8.22;100.00
6433;BME280;3249;42.690;23.260;2022-11-15T10:30:16;94707.53;;;8.14;100.00
6433;BME280;3249;42.690;23.260;2022-11-15T10:32:43;94716.53;;;8.31;100.00
6433;BME280;3249;42.690;23.260;2022-11-15T10:35:25;94700.41;;;7.75;100.00
6433;BME280;3249;42.690;23.260;2022-11-15T10:37:51;94689.66;;;7.59;100.00
6433;BME280;3249;42.690;23.260;2022-11-15T10:40:22;94692.63;;;7.56;100.00
6433;BME280;3249;42.690;23.260;2022-11-15T10:43:04;94680.63;;;7.29;100.00
6433;BME280;3249;42.690;23.260;2022-11-15T10:45:31;94690.63;;;7.85;100.00
6433;BME280;3249;42.690;23.260;2022-11-15T10:48:29;94679.06;;;7.62;100.00
6433;BME280;3249;42.690;23.260;2022-11-15T10:50:55;94625.09;;;7.70;100.00
6433;BME280;3249;42.690;23.260;2022-11-15T10:53:30;94676.50;;;7.96;100.00
6433;BME280;3249;42.690;23.260;2022-11-15T10:56:04;94667.81;;;7.63;100.00
6433;BME280;3249;42.690;23.260;2022-11-15T10:58:51;94674.09;;;7.88;100.00
6433;BME280;3249;42.690;23.260;2022-11-15T11:01:19;94657.31;;;7.85;100.00
6433;BME280;3249;42.690;23.260;2022-11-15T11:04:07;94662.16;;;8.08;100.00
6433;BME280;3249;42.690;23.260;2022-11-15T11:09:31;94654.22;;;7.56;100.00
6433;BME280;3249;42.690;23.260;2022-11-15T11:11:57;94642.81;;;7.65;100.00
6433;BME280;3249;42.690;23.260;2022-11-15T11:14:29;94636.44;;;7.48;100.00
6433;BME280;3249;42.690;23.260;2022-11-15T11:25:56;94632.72;;;7.97;100.00
6433;BME280;3249;42.690;23.260;2022-11-15T11:28:33;94616.47;;;7.77;100.00
6433;BME280;3249;42.690;23.260;2022-11-15T11:31:32;94612.16;;;7.84;100.00
6433;BME280;3249;42.690;23.260;2022-11-15T11:36:47;94608.13;;;7.62;100.00
6433;BME280;3249;42.690;23.260;2022-11-15T11:42:24;94599.13;;;7.79;100.00
6433;BME280;3249;42.690;23.260;2022-11-15T11:45:05;94587.94;;;7.87;100.00
6433;BME280;3249;42.690;23.260;2022-11-15T11:48:12;94555.19;;;7.76;100.00
6433;BME280;3249;42.690;23.260;2022-11-15T11:50:41;94559.28;;;7.70;100.00
6433;BME280;3249;42.690;23.260;2022-11-15T11:54:01;94579.69;;;7.98;100.00
6433;BME280;3249;42.690;23.260;2022-11-15T11:56:29;94551.91;;;8.08;100.00
6433;BME280;3249;42.690;23.260;2022-11-15T11:59:16;94561.56;;;8.12;100.00
6433;BME280;3249;42.690;23.260;2022-11-15T12:01:45;94560.66;;;8.26;100.00
6433;BME280;3249;42.690;23.260;2022-11-15T12:04:19;94561.75;;;8.04;100.00
6433;BME280;3249;42.690;23.260;2022-11-15T12:06:53;94558.22;;;8.05;100.00
6433;BME280;3249;42.690;23.260;2022-11-15T12:09:29;94551.13;;;8.07;100.00
6433;BME280;3249;42.690;23.260;2022-11-15T12:12:41;94545.41;;;8.05;100.00
6433;BME280;3249;42.690;23.260;2022-11-15T12:17:34;94538.91;;;8.09;100.00
6433;BME280;3249;42.690;23.260;2022-11-15T12:20:03;94537.38;;;8.21;100.00
6433;BME280;3249;42.690;23.260;2022-11-15T12:22:42;94538.78;;;8.37;100.00
6433;BME280;3249;42.690;23.260;2022-11-15T12:25:25;94513.72;;;8.32;100.00
6433;BME280;3249;42.690;23.260;2022-11-15T12:28:16;94520.81;;;8.43;100.00
6433;BME280;3249;42.690;23.260;2022-11-15T12:30:54;94527.75;;;8.49;100.00
6433;BME280;3249;42.690;23.260;2022-11-15T12:36:05;94517.28;;;8.70;100.00
6433;BME280;3249;42.690;23.260;2022-11-15T12:41:17;94513.94;;;8.50;100.00
6433;BME280;3249;42.690;23.260;2022-11-15T12:43:45;94513.94;;;8.44;100.00
6433;BME280;3249;42.690;23.260;2022-11-15T12:46:19;94510.19;;;8.27;100.00
6433;BME280;3249;42.690;23.260;2022-11-15T12:48:51;94501.06;;;8.24;100.00
6433;BME280;3249;42.690;23.260;2022-11-15T12:51:21;94491.22;;;8.34;100.00
6433;BME280;3249;42.690;23.260;2022-11-15T12:53:47;94491.81;;;8.69;100.00
6433;BME280;3249;42.690;23.260;2022-11-15T12:58:57;94499.50;;;8.75;100.00
6433;BME280;3249;42.690;23.260;2022-11-15T13:09:50;94493.22;;;8.39;100.00
6433;BME280;3249;42.690;23.260;2022-11-15T13:14:54;94480.56;;;8.24;100.00
6433;BME280;3249;42.690;23.260;2022-11-15T13:19:46;94475.03;;;8.34;100.00
6433;BME280;3249;42.690;23.260;2022-11-15T13:22:12;94479.59;;;8.51;100.00
6433;BME280;3249;42.690;23.260;2022-11-15T13:24:57;94472.28;;;8.55;100.00
6433;BME280;3249;42.690;23.260;2022-11-15T13:27:24;94474.66;;;8.69;100.00
6433;BME280;3249;42.690;23.260;2022-11-15T13:29:50;94464.59;;;8.61;100.00
6433;BME280;3249;42.690;23.260;2022-11-15T13:32:16;94466.56;;;8.46;100.00
6433;BME280;3249;42.690;23.260;2022-11-15T13:34:49;94471.88;;;8.58;100.00
6433;BME280;3249;42.690;23.260;2022-11-15T13:39:46;94472.22;;;8.87;100.00
6433;BME280;3249;42.690;23.260;2022-11-15T13:42:16;94438.69;;;8.82;100.00
6433;BME280;3249;42.690;23.260;2022-11-15T13:44:56;94464.34;;;8.82;100.00
6433;BME280;3249;42.690;23.260;2022-11-15T13:47:21;94473.47;;;8.65;100.00
6433;BME280;3249;42.690;23.260;2022-11-15T13:49:50;94459.66;;;8.53;100.00
6433;BME280;3249;42.690;23.260;2022-11-15T13:52:15;94465.19;;;8.57;100.00
6433;BME280;3249;42.690;23.260;2022-11-15T13:54:43;94460.44;;;8.47;100.00
6433;BME280;3249;42.690;23.260;2022-11-15T13:57:14;94453.16;;;8.44;100.00
6433;BME280;3249;42.690;23.260;2022-11-15T13:59:49;94453.38;;;8.43;100.00
6433;BME280;3249;42.690;23.260;2022-11-15T14:02:21;94466.19;;;8.36;100.00
6433;BME280;3249;42.690;23.260;2022-11-15T14:07:23;94434.78;;;8.47;100.00
6433;BME280;3249;42.690;23.260;2022-11-15T14:09:49;94463.22;;;8.52;100.00
6433;BME280;3249;42.690;23.260;2022-11-15T14:12:32;94465.38;;;8.42;100.00
6433;BME280;3249;42.690;23.260;2022-11-15T14:15:00;94452.38;;;8.37;100.00
6433;BME280;3249;42.690;23.260;2022-11-15T14:19:56;94442.88;;;8.64;100.00
6433;BME280;3249;42.690;23.260;2022-11-15T14:22:25;94441.84;;;8.71;100.00
6433;BME280;3249;42.690;23.260;2022-11-15T14:27:38;94436.97;;;8.24;100.00
6433;BME280;3249;42.690;23.260;2022-11-15T14:30:04;94439.69;;;8.03;100.00
6433;BME280;3249;42.690;23.260;2022-11-15T14:32:49;94429.44;;;7.77;100.00
6433;BME280;3249;42.690;23.260;2022-11-15T14:35:18;94451.50;;;7.65;100.00
6433;BME280;3249;42.690;23.260;2022-11-15T14:37:44;94438.06;;;7.57;100.00
6433;BME280;3249;42.690;23.260;2022-11-15T14:40:17;94452.09;;;7.80;100.00
6433;BME280;3249;42.690;23.260;2022-11-15T14:42:44;94424.91;;;7.79;100.00
6433;BME280;3249;42.690;23.260;2022-11-15T14:45:20;94449.75;;;7.98;100.00
6433;BME280;3249;42.690;23.260;2022-11-15T14:47:46;94412.06;;;7.60;100.00
6433;BME280;3249;42.690;23.260;2022-11-15T14:50:17;94441.88;;;7.93;100.00
6433;BME280;3249;42.690;23.260;2022-11-15T14:52:44;94450.56;;;8.05;100.00
6433;BME280;3249;42.690;23.260;2022-11-15T14:55:20;94448.94;;;7.65;100.00
6433;BME280;3249;42.690;23.260;2022-11-15T14:57:46;94435.28;;;7.52;100.00
6433;BME280;3249;42.690;23.260;2022-11-15T15:00:13;94421.06;;;7.36;100.00